Time;durP1;ratioP1;P1;durP2;ratioP2;P2;SDS_P1;SDS_P2;PMS_P1;PMS_P2;Temp;Humidity;BMP_temperature;BMP_pressure;BME280_temperature;BME280_humidity;BME280_pressure;Samples;Min_cycle;Max_cycle;Signal;HPM_P1;HPM_P2
2024/03/25 07:25:21;;;;;;;0.80;0.80;;;1.90;99.90;;;;;;5051370;28;20211;-75
2024/03/25 07:41:40;;;;;;;1.20;1.10;;;2.20;99.90;;;;;;4887061;29;20225;-73
2024/03/25 07:47:41;;;;;;;0.70;0.70;;;2.20;99.90;;;;;;4883073;28;20267;-72
2024/03/25 08:33:44;;;;;;;0.70;0.70;;;2.50;99.90;;;;;;4825722;29;20220;-71
2024/03/25 08:36:34;;;;;;;1.38;1.05;;;2.50;99.90;;;;;;4862226;29;20212;-72
2024/03/25 09:17:31;;;;;;;0.75;0.75;;;3.10;99.90;;;;;;4827964;29;20762;-74
2024/03/25 09:20:16;;;;;;;0.68;0.68;;;3.10;99.90;;;;;;4824696;29;20307;-74
2024/03/25 09:41:39;;;;;;;;;;;;;;;;;;;;;
2024/03/25 09:54:37;;;;;;;0.70;0.70;;;3.40;99.90;;;;;;4823266;29;20250;-71
2024/03/25 10:18:58;;;;;;;0.80;0.80;;;4.00;99.90;;;;;;4878085;29;20206;-73
2024/03/25 11:01:30;;;;;;;0.70;0.70;;;5.10;99.90;;;;;;4895082;29;20225;-70
2024/03/25 11:08:26;;;;;;;;;;;;;;;;;;;;;
2024/03/25 11:39:18;;;;;;;0.80;0.80;;;6.00;99.90;;;;;;6296045;22;20182;-72
2024/03/25 11:42:26;;;;;;;0.70;0.70;;;6.00;99.90;;;;;;6289777;22;20202;-76
2024/03/25 11:45:01;;;;;;;0.85;0.85;;;6.00;99.90;;;;;;6166427;22;20182;-76
2024/03/25 11:55:05;;;;;;;0.80;0.80;;;5.80;99.90;;;;;;6109923;23;20183;-75
2024/03/25 11:58:02;;;;;;;0.75;0.75;;;5.70;99.90;;;;;;6105496;23;20172;-76
2024/03/25 12:00:45;;;;;;;0.70;0.70;;;5.80;99.90;;;;;;6105075;23;20258;-76
2024/03/25 12:03:20;;;;;;;0.80;0.80;;;5.90;99.90;;;;;;6105992;23;20176;-76
2024/03/25 12:38:29;;;;;;;0.70;0.70;;;5.10;99.90;;;;;;5932092;24;20199;-75
2024/03/25 12:41:08;;;;;;;0.60;0.60;;;5.20;99.90;;;;;;5933036;24;20184;-75
2024/03/25 12:44:14;;;;;;;0.70;0.70;;;5.20;99.90;;;;;;5929105;24;20643;-77
2024/03/25 12:47:48;;;;;;;0.80;0.80;;;5.20;99.90;;;;;;5986567;23;20188;-74
2024/03/25 13:01:25;;;;;;;0.70;0.70;;;6.10;99.90;;;;;;5836139;24;20198;-76
2024/03/25 13:10:45;;;;;;;0.70;0.70;;;6.40;99.90;;;;;;5888178;24;20300;-73
2024/03/25 13:13:58;;;;;;;0.70;0.70;;;6.40;99.90;;;;;;5899532;24;20213;-76
2024/03/25 13:16:58;;;;;;;0.75;0.75;;;6.40;99.90;;;;;;5930099;24;20184;-75
2024/03/25 13:37:27;;;;;;;0.80;0.80;;;5.80;99.90;;;;;;5945234;24;20194;-76
2024/03/25 13:50:34;;;;;;;0.70;0.70;;;5.00;99.90;;;;;;5783959;24;20205;-75
2024/03/25 13:53:00;;;;;;;0.70;0.70;;;5.20;99.90;;;;;;5764240;24;20184;-74
2024/03/25 13:55:25;;;;;;;0.65;0.65;;;5.30;99.90;;;;;;5764271;24;20207;-76
2024/03/25 13:57:51;;;;;;;0.70;0.70;;;5.30;99.90;;;;;;5764333;24;20257;-76
2024/03/25 14:00:17;;;;;;;0.70;0.70;;;5.40;99.90;;;;;;5795140;24;20601;-76
2024/03/25 14:02:42;;;;;;;0.80;0.80;;;5.40;99.90;;;;;;5843236;24;20253;-76
2024/03/25 14:05:08;;;;;;;0.77;0.77;;;5.40;99.90;;;;;;5843241;24;20190;-77
2024/03/25 14:07:34;;;;;;;0.80;0.80;;;5.20;99.90;;;;;;5861890;24;20203;-76
2024/03/25 14:09:59;;;;;;;0.80;0.80;;;5.10;99.90;;;;;;5885384;24;20187;-76
2024/03/25 14:12:25;;;;;;;0.80;0.80;;;5.20;99.90;;;;;;5956391;23;20195;-77
2024/03/25 14:14:51;;;;;;;0.70;0.70;;;5.40;99.90;;;;;;5979994;23;20210;-77
2024/03/25 14:17:16;;;;;;;0.68;0.68;;;5.60;99.90;;;;;;6012896;23;20177;-76
2024/03/25 14:19:42;;;;;;;0.75;0.75;;;5.90;99.90;;;;;;6065052;23;20176;-76
2024/03/25 14:22:07;;;;;;;0.60;0.60;;;5.90;99.90;;;;;;6065183;23;20232;-77
2024/03/25 14:24:33;;;;;;;0.70;0.70;;;5.80;99.90;;;;;;6218174;23;20172;-77
2024/03/25 14:26:59;;;;;;;0.80;0.80;;;6.00;99.90;;;;;;6245486;23;20248;-77
2024/03/25 14:29:24;;;;;;;0.90;0.90;;;6.00;99.90;;;;;;6222584;22;20192;-76
2024/03/25 14:31:50;;;;;;;0.80;0.80;;;6.00;99.90;;;;;;6275849;22;20180;-77
2024/03/25 14:34:16;;;;;;;0.80;0.80;;;6.00;99.90;;;;;;6276031;22;20179;-77
2024/03/25 14:36:44;;;;;;;0.80;0.80;;;6.00;99.90;;;;;;6248748;22;20176;-76
2024/03/25 14:39:14;;;;;;;0.60;0.60;;;6.00;99.90;;;;;;6248891;22;20614;-76
2024/03/25 14:41:40;;;;;;;0.80;0.80;;;6.00;99.90;;;;;;6275809;22;20172;-74
2024/03/25 14:44:06;;;;;;;0.90;0.90;;;6.00;99.90;;;;;;6275672;22;20233;-73
2024/03/25 14:46:32;;;;;;;0.80;0.80;;;5.70;99.90;;;;;;6275671;22;20243;-75
2024/03/25 14:48:57;;;;;;;0.70;0.70;;;5.70;99.90;;;;;;6275963;22;20175;-73
2024/03/25 14:51:23;;;;;;;0.70;0.70;;;5.70;99.90;;;;;;6275565;22;20277;-74
2024/03/25 14:53:49;;;;;;;0.70;0.70;;;5.70;99.90;;;;;;6248575;22;20199;-74
2024/03/25 14:56:15;;;;;;;0.70;0.70;;;5.70;99.90;;;;;;6275746;22;20188;-75
2024/03/25 14:58:40;;;;;;;0.70;0.70;;;5.70;99.90;;;;;;6275632;22;20241;-74
2024/03/25 15:01:06;;;;;;;0.70;0.70;;;5.70;99.90;;;;;;6248680;22;20622;-74
2024/03/25 15:03:32;;;;;;;0.73;0.73;;;5.70;99.90;;;;;;6275478;22;20194;-74
2024/03/25 15:05:57;;;;;;;0.85;0.85;;;5.60;99.90;;;;;;6248915;22;20180;-75
2024/03/25 15:08:23;;;;;;;0.70;0.70;;;5.60;99.90;;;;;;6275520;22;20293;-74
2024/03/25 15:10:49;;;;;;;0.77;0.77;;;5.30;99.90;;;;;;6248386;22;20326;-76
2024/03/25 15:13:15;;;;;;;0.50;0.50;;;5.30;99.90;;;;;;6275581;22;20168;-73
2024/03/25 15:15:43;;;;;;;0.60;0.60;;;5.30;99.90;;;;;;6275356;22;20199;-74
2024/03/25 15:18:09;;;;;;;0.60;0.60;;;5.30;99.90;;;;;;6275689;22;20300;-75
2024/03/25 15:20:34;;;;;;;0.77;0.77;;;5.30;99.90;;;;;;6275391;22;20659;-74
2024/03/25 15:23:00;;;;;;;0.80;0.80;;;5.40;99.90;;;;;;6248557;22;20184;-74
2024/03/25 15:25:27;;;;;;;0.75;0.75;;;5.30;99.90;;;;;;6275312;22;20199;-74
2024/03/25 15:27:52;;;;;;;0.70;0.70;;;5.10;99.90;;;;;;6248445;22;20176;-74
2024/03/25 15:30:18;;;;;;;0.80;0.80;;;4.90;99.90;;;;;;6246292;22;20216;-73
2024/03/25 15:32:44;;;;;;;0.90;0.90;;;4.80;99.90;;;;;;6273845;22;20172;-74
2024/03/25 15:35:09;;;;;;;0.60;0.60;;;4.90;99.90;;;;;;6275561;22;20214;-74
2024/03/25 15:37:35;;;;;;;0.70;0.70;;;4.90;99.90;;;;;;6275346;22;20199;-74
2024/03/25 15:40:01;;;;;;;0.70;0.70;;;4.80;99.90;;;;;;6273590;22;20200;-72
2024/03/25 15:42:26;;;;;;;0.80;0.80;;;4.80;99.90;;;;;;6275438;22;20172;-72
2024/03/25 15:44:52;;;;;;;0.70;0.70;;;4.80;99.90;;;;;;6275542;22;20255;-75
2024/03/25 15:47:18;;;;;;;0.70;0.70;;;4.90;99.90;;;;;;6275478;22;20168;-73
2024/03/25 15:49:47;;;;;;;0.68;0.68;;;4.90;99.90;;;;;;6275638;22;20207;-70
2024/03/25 15:52:13;;;;;;;0.70;0.70;;;4.90;99.90;;;;;;6275316;22;20261;-71
2024/03/25 15:54:39;;;;;;;0.60;0.60;;;4.90;99.90;;;;;;6275317;22;21211;-71
2024/03/25 15:57:05;;;;;;;0.80;0.80;;;4.90;99.90;;;;;;6274315;22;20196;-72
2024/03/25 15:59:31;;;;;;;0.80;0.80;;;4.90;99.90;;;;;;6277142;22;20171;-71
2024/03/25 16:01:56;;;;;;;0.60;0.60;;;4.90;99.90;;;;;;6275934;22;20526;-71
2024/03/25 16:04:23;;;;;;;0.70;0.70;;;5.00;99.90;;;;;;6277348;22;20168;-70
2024/03/25 16:06:49;;;;;;;0.65;0.65;;;4.90;99.90;;;;;;6275809;22;20255;-71
2024/03/25 16:09:16;;;;;;;1.52;1.42;;;4.80;99.90;;;;;;6277354;22;20257;-71
2024/03/25 16:11:42;;;;;;;0.77;0.77;;;4.70;99.90;;;;;;6275442;22;20192;-72
2024/03/25 16:14:10;;;;;;;0.75;0.75;;;4.60;99.90;;;;;;6275609;22;20172;-72
2024/03/25 16:16:41;;;;;;;0.70;0.70;;;4.50;99.90;;;;;;6276998;22;20165;-72
2024/03/25 16:19:07;;;;;;;0.70;0.70;;;4.40;99.90;;;;;;6277229;22;20206;-72
2024/03/25 16:21:33;;;;;;;0.77;0.77;;;4.40;99.90;;;;;;6277267;22;20172;-71
2024/03/25 16:23:58;;;;;;;0.80;0.80;;;4.40;99.90;;;;;;6277168;22;20169;-71
2024/03/25 16:26:25;;;;;;;0.90;0.90;;;4.40;99.90;;;;;;6276958;22;20168;-71
2024/03/25 16:28:50;;;;;;;0.60;0.60;;;4.40;99.90;;;;;;6277183;22;20574;-72
2024/03/25 16:31:16;;;;;;;0.68;0.68;;;4.40;99.90;;;;;;6276955;22;20199;-71
2024/03/25 16:33:41;;;;;;;0.70;0.70;;;4.30;99.90;;;;;;6275293;22;20180;-71
2024/03/25 16:36:07;;;;;;;3.30;1.90;;;4.30;99.90;;;;;;6276753;22;20483;-72
2024/03/25 16:38:33;;;;;;;0.80;0.80;;;4.20;99.90;;;;;;6276860;22;20165;-70
2024/03/25 16:40:59;;;;;;;0.55;0.55;;;4.20;99.90;;;;;;6277017;22;20168;-71
2024/03/25 16:43:25;;;;;;;0.80;0.80;;;4.10;99.90;;;;;;6276707;22;20641;-72
2024/03/25 16:45:50;;;;;;;0.60;0.60;;;4.10;99.90;;;;;;6276969;22;20169;-71
2024/03/25 16:48:16;;;;;;;0.75;0.75;;;4.00;99.90;;;;;;6277008;22;20250;-71
2024/03/25 16:50:42;;;;;;;0.80;0.80;;;4.00;99.90;;;;;;6276545;22;20266;-71
2024/03/25 16:53:07;;;;;;;0.70;0.70;;;3.90;99.90;;;;;;6276803;22;20262;-71
2024/03/25 16:55:33;;;;;;;0.80;0.80;;;3.90;99.90;;;;;;6276588;22;20171;-72
2024/03/25 16:57:59;;;;;;;0.70;0.70;;;3.80;99.90;;;;;;6276877;22;20175;-71
2024/03/25 17:00:24;;;;;;;0.70;0.70;;;3.80;99.90;;;;;;6276650;22;20186;-71
2024/03/25 17:02:50;;;;;;;0.70;0.70;;;3.70;99.90;;;;;;6276637;22;20259;-71
2024/03/25 17:05:16;;;;;;;0.70;0.70;;;3.70;99.90;;;;;;6276828;22;20632;-71
2024/03/25 17:07:41;;;;;;;0.85;0.85;;;3.70;99.90;;;;;;6276620;22;20614;-71
2024/03/25 17:10:10;;;;;;;0.63;0.63;;;3.60;99.90;;;;;;6276739;22;20164;-72
2024/03/25 17:12:37;;;;;;;0.70;0.70;;;3.60;99.90;;;;;;6276379;22;20180;-72
2024/03/25 17:15:05;;;;;;;0.65;0.65;;;3.60;99.90;;;;;;6276691;22;20663;-71
2024/03/25 17:17:34;;;;;;;0.80;0.80;;;3.50;99.90;;;;;;6276584;22;20168;-71
2024/03/25 17:20:08;;;;;;;0.60;0.60;;;3.50;99.90;;;;;;6275030;22;20263;-72
2024/03/25 17:22:34;;;;;;;0.82;0.82;;;3.50;99.90;;;;;;6276448;22;20196;-71
2024/03/25 17:25:00;;;;;;;0.88;0.88;;;3.50;99.90;;;;;;6276375;22;20175;-73
2024/03/25 17:27:25;;;;;;;0.80;0.80;;;3.40;99.90;;;;;;6276487;22;20243;-71
2024/03/25 17:29:51;;;;;;;0.70;0.70;;;3.40;99.90;;;;;;6276349;22;20652;-71
2024/03/25 17:32:17;;;;;;;0.73;0.73;;;3.30;99.90;;;;;;6276102;22;20191;-71
2024/03/25 17:34:42;;;;;;;0.80;0.80;;;3.30;99.90;;;;;;6274721;22;20609;-71
2024/03/25 17:37:08;;;;;;;0.80;0.80;;;3.20;99.90;;;;;;6276476;22;20168;-72
2024/03/25 17:39:35;;;;;;;0.70;0.70;;;3.20;99.90;;;;;;6276289;22;20168;-71
2024/03/25 17:42:01;;;;;;;0.73;0.73;;;3.20;99.90;;;;;;6276363;22;20222;-72
2024/03/25 17:44:26;;;;;;;0.90;0.90;;;3.10;99.90;;;;;;6276293;22;20255;-71
2024/03/25 17:46:52;;;;;;;0.82;0.82;;;3.10;99.90;;;;;;6276421;22;20203;-70
2024/03/25 17:49:18;;;;;;;0.70;0.70;;;3.10;99.90;;;;;;6276339;22;20191;-72
2024/03/25 17:51:44;;;;;;;0.70;0.70;;;3.10;99.90;;;;;;6274696;22;20199;-71
2024/03/25 17:54:10;;;;;;;0.80;0.80;;;3.10;99.90;;;;;;6274786;22;20177;-71
2024/03/25 17:56:36;;;;;;;0.80;0.80;;;3.00;99.90;;;;;;6274542;22;20176;-71
2024/03/25 17:59:02;;;;;;;0.80;0.80;;;3.00;99.90;;;;;;6276310;22;20164;-72
2024/03/25 18:01:27;;;;;;;0.80;0.80;;;3.00;99.90;;;;;;6276499;22;20206;-72
2024/03/25 18:03:53;;;;;;;0.90;0.90;;;2.90;99.90;;;;;;6276233;22;20172;-72
2024/03/25 18:06:19;;;;;;;0.75;0.75;;;2.90;99.90;;;;;;6274541;22;20601;-72
2024/03/25 18:08:45;;;;;;;0.70;0.70;;;2.90;99.90;;;;;;6276302;22;20173;-71
2024/03/25 18:11:10;;;;;;;0.70;0.70;;;2.80;99.90;;;;;;6276302;22;20201;-73
2024/03/25 18:13:36;;;;;;;0.80;0.80;;;2.80;99.90;;;;;;6275987;22;20251;-73
2024/03/25 18:16:02;;;;;;;0.80;0.80;;;2.80;99.90;;;;;;6276203;22;20191;-73
2024/03/25 18:18:27;;;;;;;0.70;0.70;;;2.80;99.90;;;;;;6275993;22;20164;-73
2024/03/25 18:20:53;;;;;;;0.80;0.80;;;2.70;99.90;;;;;;6275897;22;20197;-73
2024/03/25 18:23:19;;;;;;;0.88;0.88;;;2.70;99.90;;;;;;6275952;22;20176;-73
2024/03/25 18:25:45;;;;;;;0.70;0.70;;;2.70;99.90;;;;;;6276180;22;20168;-73
2024/03/25 18:28:12;;;;;;;7.03;2.95;;;2.70;99.90;;;;;;6276080;22;20172;-73
2024/03/25 18:30:40;;;;;;;0.90;0.90;;;2.70;99.90;;;;;;6273823;22;20203;-73
2024/03/25 18:33:07;;;;;;;0.80;0.80;;;2.70;99.90;;;;;;6274586;22;20514;-73
2024/03/25 18:35:39;;;;;;;0.80;0.80;;;2.70;99.90;;;;;;6275936;22;20599;-73
2024/03/25 18:38:05;;;;;;;0.70;0.70;;;2.70;99.90;;;;;;6276144;22;20164;-73
2024/03/25 18:40:31;;;;;;;0.70;0.70;;;2.60;99.90;;;;;;6275959;22;20512;-73
2024/03/25 18:42:57;;;;;;;0.80;0.80;;;2.60;99.90;;;;;;6275991;22;20586;-72
2024/03/25 18:45:23;;;;;;;1.10;1.00;;;2.60;99.90;;;;;;6275853;22;20239;-73
2024/03/25 18:47:48;;;;;;;0.70;0.70;;;2.60;99.90;;;;;;6274381;22;20176;-73
2024/03/25 18:50:14;;;;;;;0.60;0.60;;;2.60;99.90;;;;;;6275919;22;20164;-74
2024/03/25 18:52:41;;;;;;;0.73;0.73;;;2.60;99.90;;;;;;6275670;22;20223;-75
2024/03/25 18:55:07;;;;;;;0.70;0.70;;;2.50;99.90;;;;;;6275863;22;20247;-74
2024/03/25 18:57:33;;;;;;;0.63;0.63;;;2.50;99.90;;;;;;6275623;22;20168;-73
2024/03/25 18:59:59;;;;;;;0.70;0.70;;;2.50;99.90;;;;;;6275981;22;20213;-73
2024/03/25 19:02:24;;;;;;;1.35;1.25;;;2.50;99.90;;;;;;6274297;22;20184;-73
2024/03/25 19:04:50;;;;;;;0.75;0.75;;;2.50;99.90;;;;;;6275727;22;20179;-72
2024/03/25 19:07:16;;;;;;;0.90;0.90;;;2.40;99.90;;;;;;6274264;22;20180;-72
2024/03/25 19:09:41;;;;;;;0.70;0.70;;;2.40;99.90;;;;;;6275588;22;20635;-73
2024/03/25 19:12:07;;;;;;;0.70;0.70;;;2.40;99.90;;;;;;6274086;22;20267;-73
2024/03/25 19:14:33;;;;;;;0.80;0.80;;;2.40;99.90;;;;;;6275469;22;20175;-73
2024/03/25 19:16:59;;;;;;;0.60;0.60;;;2.40;99.90;;;;;;6275810;22;20510;-74
2024/03/25 19:19:24;;;;;;;0.75;0.75;;;2.40;99.90;;;;;;6275608;22;20636;-74
2024/03/25 19:21:50;;;;;;;0.90;0.90;;;2.40;99.90;;;;;;6275734;22;20168;-71
2024/03/25 19:24:16;;;;;;;0.88;0.88;;;2.40;99.90;;;;;;6274386;22;20184;-70
2024/03/25 19:26:42;;;;;;;0.65;0.65;;;2.40;99.90;;;;;;6273746;22;20667;-70
2024/03/25 19:29:07;;;;;;;0.80;0.80;;;2.30;99.90;;;;;;6275335;22;20168;-71
2024/03/25 19:31:33;;;;;;;0.70;0.70;;;2.30;99.90;;;;;;6275368;22;20176;-70
2024/03/25 19:33:59;;;;;;;0.73;0.73;;;2.30;99.90;;;;;;6277259;22;20169;-71
2024/03/25 19:36:28;;;;;;;2.78;1.80;;;2.30;99.90;;;;;;6277580;22;20602;-71
2024/03/25 19:38:54;;;;;;;0.70;0.70;;;2.30;99.90;;;;;;6250568;22;20172;-70
2024/03/25 19:41:20;;;;;;;0.65;0.65;;;2.30;99.90;;;;;;6250246;22;20180;-71
2024/03/25 19:43:46;;;;;;;0.90;0.90;;;2.30;99.90;;;;;;6250449;22;20175;-71
2024/03/25 19:46:11;;;;;;;0.88;0.88;;;2.30;99.90;;;;;;6277621;22;20242;-74
2024/03/25 19:48:38;;;;;;;0.80;0.80;;;2.30;99.90;;;;;;6277342;22;20176;-71
2024/03/25 19:51:04;;;;;;;4.70;2.45;;;2.30;99.90;;;;;;6250252;22;20195;-71
2024/03/25 19:53:29;;;;;;;0.80;0.80;;;2.20;99.90;;;;;;6277250;22;20180;-71
2024/03/25 19:56:02;;;;;;;1.10;1.02;;;2.20;99.90;;;;;;6277458;22;20472;-70
2024/03/25 19:58:29;;;;;;;0.80;0.80;;;2.20;99.90;;;;;;6277316;22;20173;-70
2024/03/25 20:00:55;;;;;;;1.15;1.08;;;2.20;99.90;;;;;;6277632;22;20183;-70
2024/03/25 20:03:20;;;;;;;0.70;0.70;;;2.20;99.90;;;;;;6277105;22;20172;-71
2024/03/25 20:05:46;;;;;;;0.63;0.63;;;2.10;99.90;;;;;;6277136;22;20179;-71
2024/03/25 20:08:12;;;;;;;0.70;0.70;;;2.10;99.90;;;;;;6277467;22;20612;-71
2024/03/25 20:10:37;;;;;;;0.90;0.90;;;2.10;99.90;;;;;;6277238;22;20204;-71
2024/03/25 20:13:03;;;;;;;0.80;0.80;;;2.00;99.90;;;;;;6250298;22;20535;-70
2024/03/25 20:15:29;;;;;;;0.75;0.75;;;2.00;99.90;;;;;;6277208;22;20660;-70
2024/03/25 20:17:56;;;;;;;0.63;0.63;;;1.90;99.90;;;;;;6277365;22;20190;-71
2024/03/25 20:20:22;;;;;;;0.70;0.70;;;1.80;99.90;;;;;;6277116;22;20448;-70
2024/03/25 20:22:48;;;;;;;0.70;0.70;;;1.80;99.90;;;;;;6277099;22;20168;-71
2024/03/25 20:25:13;;;;;;;0.50;0.50;;;1.80;99.90;;;;;;6250110;22;20176;-70
2024/03/25 20:27:39;;;;;;;0.70;0.70;;;1.70;99.90;;;;;;6276999;22;20168;-73
2024/03/25 20:30:05;;;;;;;0.70;0.70;;;1.70;99.90;;;;;;6277217;22;20246;-72
2024/03/25 20:32:31;;;;;;;0.70;0.70;;;1.70;99.90;;;;;;6276763;22;20219;-72
2024/03/25 20:35:02;;;;;;;0.70;0.70;;;1.60;99.90;;;;;;6277040;22;20176;-72
2024/03/25 20:37:28;;;;;;;0.70;0.70;;;1.50;99.90;;;;;;6276717;22;20525;-73
2024/03/25 20:39:57;;;;;;;0.70;0.70;;;1.50;99.90;;;;;;6277064;22;20609;-74
2024/03/25 20:42:22;;;;;;;0.80;0.80;;;1.50;99.90;;;;;;6249623;22;20176;-73
2024/03/25 20:44:48;;;;;;;0.60;0.60;;;1.40;99.90;;;;;;6276521;22;20179;-72
2024/03/25 20:47:14;;;;;;;0.90;0.90;;;1.30;99.90;;;;;;6249775;22;20512;-72
2024/03/25 20:49:39;;;;;;;0.80;0.80;;;1.20;99.90;;;;;;6276692;22;20610;-73
2024/03/25 20:52:05;;;;;;;0.70;0.70;;;1.20;99.90;;;;;;6276950;22;20188;-73
2024/03/25 20:54:31;;;;;;;0.88;0.88;;;1.10;99.90;;;;;;6276587;22;20160;-73
2024/03/25 20:56:57;;;;;;;0.80;0.80;;;0.90;99.90;;;;;;6276936;22;20168;-73
2024/03/25 20:59:23;;;;;;;0.80;0.80;;;0.90;99.90;;;;;;6276607;22;20174;-73
2024/03/25 21:01:48;;;;;;;0.90;0.90;;;0.80;99.90;;;;;;6276456;22;20190;-74
2024/03/25 21:04:14;;;;;;;0.70;0.70;;;0.70;99.90;;;;;;6276045;22;20172;-72
2024/03/25 21:06:41;;;;;;;1.58;1.17;;;0.70;99.90;;;;;;6247872;22;20255;-74
2024/03/25 21:09:07;;;;;;;0.80;0.80;;;0.60;99.90;;;;;;6276337;22;20279;-72
2024/03/25 21:11:32;;;;;;;0.90;0.90;;;0.60;99.90;;;;;;6276075;22;20549;-72
2024/03/25 21:13:58;;;;;;;0.70;0.70;;;0.50;99.90;;;;;;6276384;22;20172;-73
2024/03/25 21:16:24;;;;;;;0.80;0.80;;;0.60;99.90;;;;;;6276443;22;20239;-72
2024/03/25 21:18:50;;;;;;;0.70;0.70;;;0.50;99.90;;;;;;6249599;22;20203;-73
2024/03/25 21:21:16;;;;;;;0.70;0.70;;;0.50;99.90;;;;;;6276675;22;20168;-72
2024/03/25 21:23:45;;;;;;;0.93;0.93;;;0.50;99.90;;;;;;6276707;22;20168;-72
2024/03/25 21:26:11;;;;;;;0.60;0.60;;;0.50;99.90;;;;;;6276589;22;20176;-71
2024/03/25 21:28:36;;;;;;;0.60;0.60;;;0.50;99.90;;;;;;6276347;22;20180;-72
2024/03/25 21:31:03;;;;;;;0.70;0.70;;;0.60;99.90;;;;;;6276237;22;20188;-71
2024/03/25 21:33:28;;;;;;;1.30;1.13;;;0.60;99.90;;;;;;6276141;22;20203;-72
2024/03/25 21:35:54;;;;;;;1.08;1.08;;;0.70;99.90;;;;;;6276767;22;20168;-72
2024/03/25 21:38:20;;;;;;;0.80;0.80;;;0.70;99.90;;;;;;6276026;22;20176;-73
2024/03/25 21:40:47;;;;;;;3.55;2.72;;;0.80;99.90;;;;;;6276575;22;20164;-72
2024/03/25 21:43:13;;;;;;;2.05;1.20;;;0.90;99.90;;;;;;6276173;22;20628;-72
2024/03/25 21:45:39;;;;;;;0.60;0.60;;;0.90;99.90;;;;;;6276182;22;20172;-71
2024/03/25 21:48:05;;;;;;;0.70;0.70;;;1.00;99.90;;;;;;6276420;22;20678;-72
2024/03/25 21:50:31;;;;;;;1.15;0.98;;;1.00;99.90;;;;;;6275833;22;20190;-72
2024/03/25 21:52:59;;;;;;;0.75;0.75;;;1.10;99.90;;;;;;6276256;22;20251;-72
2024/03/25 21:55:25;;;;;;;1.33;1.27;;;1.10;99.90;;;;;;6275638;22;20247;-73
2024/03/25 21:57:51;;;;;;;0.80;0.80;;;1.10;99.90;;;;;;6248822;22;20172;-71
2024/03/25 22:00:18;;;;;;;0.77;0.77;;;1.10;99.90;;;;;;6276273;22;20172;-73
2024/03/25 22:02:44;;;;;;;0.80;0.80;;;1.10;99.90;;;;;;6276100;22;20172;-72
2024/03/25 22:05:10;;;;;;;0.90;0.90;;;1.10;99.90;;;;;;6276243;22;20173;-72
2024/03/25 22:07:39;;;;;;;0.82;0.82;;;1.10;99.90;;;;;;6248925;22;20179;-72
2024/03/25 22:10:05;;;;;;;0.60;0.60;;;1.10;99.90;;;;;;6249107;22;20522;-72
2024/03/25 22:12:30;;;;;;;0.70;0.70;;;1.10;99.90;;;;;;6275919;22;20266;-72
2024/03/25 22:14:56;;;;;;;0.80;0.80;;;1.10;99.90;;;;;;6276245;22;20175;-72
2024/03/25 22:17:22;;;;;;;0.60;0.60;;;1.10;99.90;;;;;;6275852;22;20164;-72
2024/03/25 22:19:50;;;;;;;0.98;0.98;;;1.10;99.90;;;;;;6276085;22;20243;-72
2024/03/25 22:22:16;;;;;;;0.80;0.80;;;1.10;99.90;;;;;;6276182;22;20199;-73
2024/03/25 22:24:42;;;;;;;0.80;0.80;;;1.10;99.90;;;;;;6275802;22;20168;-72
2024/03/25 22:27:07;;;;;;;0.88;0.88;;;1.10;99.90;;;;;;6276065;22;20168;-72
2024/03/25 22:29:33;;;;;;;0.57;0.57;;;1.10;99.90;;;;;;6275665;22;20196;-71
2024/03/25 22:31:59;;;;;;;0.60;0.60;;;1.10;99.90;;;;;;6275945;22;20184;-72
2024/03/25 22:34:25;;;;;;;0.65;0.65;;;1.20;99.90;;;;;;6275724;22;20164;-72
2024/03/25 22:36:50;;;;;;;0.82;0.82;;;1.10;99.90;;;;;;6275872;22;20168;-72
2024/03/25 22:39:16;;;;;;;0.68;0.68;;;1.10;99.90;;;;;;6275929;22;20314;-72
2024/03/25 22:41:41;;;;;;;0.70;0.70;;;1.10;99.90;;;;;;6248665;22;20176;-71
2024/03/25 22:44:07;;;;;;;0.70;0.70;;;1.20;99.90;;;;;;6275785;22;20625;-72
2024/03/25 22:46:33;;;;;;;0.80;0.80;;;1.10;99.90;;;;;;6275691;22;20221;-73
2024/03/25 22:48:58;;;;;;;0.70;0.70;;;1.20;99.90;;;;;;6275918;22;20168;-71
2024/03/25 22:51:24;;;;;;;0.60;0.60;;;1.20;99.90;;;;;;6275722;22;20200;-74
2024/03/25 22:53:50;;;;;;;0.60;0.60;;;1.20;99.90;;;;;;6275851;22;20168;-74
2024/03/25 22:56:15;;;;;;;0.73;0.73;;;1.20;99.90;;;;;;6275594;22;20165;-74
2024/03/25 22:58:42;;;;;;;0.80;0.80;;;1.30;99.90;;;;;;6275672;22;20175;-74
2024/03/25 23:01:09;;;;;;;1.42;1.05;;;1.30;99.90;;;;;;6275936;22;20283;-74
2024/03/25 23:03:35;;;;;;;0.80;0.80;;;1.30;99.90;;;;;;6275330;22;20168;-74
2024/03/25 23:06:03;;;;;;;0.77;0.77;;;1.30;99.90;;;;;;6275563;22;20168;-74
2024/03/25 23:08:29;;;;;;;0.75;0.75;;;1.30;99.90;;;;;;6275508;22;20623;-74
2024/03/25 23:10:59;;;;;;;0.80;0.80;;;1.30;99.90;;;;;;6275622;22;20562;-74
2024/03/25 23:13:26;;;;;;;0.80;0.80;;;1.30;99.90;;;;;;6275549;22;20243;-73
2024/03/25 23:15:51;;;;;;;0.68;0.68;;;1.30;99.90;;;;;;6275799;22;20168;-74
2024/03/25 23:18:18;;;;;;;0.80;0.80;;;1.30;99.90;;;;;;6275673;22;20484;-74
2024/03/25 23:20:45;;;;;;;0.90;0.90;;;1.30;99.90;;;;;;6248287;22;20179;-74
2024/03/25 23:23:12;;;;;;;0.80;0.80;;;1.30;99.90;;;;;;6275629;22;20164;-74
2024/03/25 23:25:39;;;;;;;0.70;0.70;;;1.30;99.90;;;;;;6248339;22;20180;-74
2024/03/25 23:28:05;;;;;;;0.80;0.80;;;1.30;99.90;;;;;;6275936;22;20165;-74
2024/03/25 23:30:31;;;;;;;4.97;1.98;;;1.40;99.90;;;;;;6275377;22;20192;-73
2024/03/25 23:32:57;;;;;;;0.70;0.70;;;1.40;99.90;;;;;;6275691;22;20511;-74
2024/03/25 23:35:23;;;;;;;0.68;0.68;;;1.40;99.90;;;;;;6275634;22;20594;-75
2024/03/25 23:37:49;;;;;;;0.70;0.70;;;1.30;99.90;;;;;;6248417;22;20206;-74
2024/03/25 23:40:15;;;;;;;0.80;0.80;;;1.40;99.90;;;;;;6275616;22;20505;-74
2024/03/25 23:42:43;;;;;;;0.65;0.65;;;1.40;99.90;;;;;;6275372;22;20206;-75
2024/03/25 23:45:09;;;;;;;0.80;0.80;;;1.40;99.90;;;;;;6275502;22;20168;-74
2024/03/25 23:47:35;;;;;;;0.70;0.70;;;1.40;99.90;;;;;;6275274;22;20528;-74
2024/03/25 23:50:01;;;;;;;0.70;0.70;;;1.40;99.90;;;;;;6275528;22;20168;-74
2024/03/25 23:52:27;;;;;;;0.70;0.70;;;1.40;99.90;;;;;;6274941;22;20187;-73
2024/03/25 23:54:53;;;;;;;0.80;0.80;;;1.40;99.90;;;;;;6275416;22;20633;-73
2024/03/25 23:57:19;;;;;;;0.70;0.70;;;1.40;99.90;;;;;;6275500;22;20243;-74
2024/03/25 23:59:44;;;;;;;1.40;1.13;;;1.40;99.90;;;;;;6275453;22;20168;-74
